sensor_id;sensor_type;location;lat;lon;timestamp;temperature;humidity
29201;DHT22;16244;51.956;12.980;2022-08-03T00:00:56;16.50;99.90
29201;DHT22;16244;51.956;12.980;2022-08-03T00:03:23;16.50;99.90
29201;DHT22;16244;51.956;12.980;2022-08-03T00:05:50;16.50;99.90
29201;DHT22;16244;51.956;12.980;2022-08-03T00:08:18;16.50;99.90
29201;DHT22;16244;51.956;12.980;2022-08-03T00:10:45;16.30;99.90
29201;DHT22;16244;51.956;12.980;2022-08-03T00:13:12;16.10;99.90
29201;DHT22;16244;51.956;12.980;2022-08-03T00:15:40;16.10;99.90
29201;DHT22;16244;51.956;12.980;2022-08-03T00:18:09;16.20;99.90
29201;DHT22;16244;51.956;12.980;2022-08-03T00:20:36;16.10;99.90
29201;DHT22;16244;51.956;12.980;2022-08-03T00:23:03;16.00;99.90
29201;DHT22;16244;51.956;12.980;2022-08-03T00:25:31;15.80;99.90
29201;DHT22;16244;51.956;12.980;2022-08-03T00:27:58;15.60;99.90
29201;DHT22;16244;51.956;12.980;2022-08-03T00:30:25;15.60;99.90
29201;DHT22;16244;51.956;12.980;2022-08-03T00:32:53;15.70;99.90
29201;DHT22;16244;51.956;12.980;2022-08-03T00:35:23;15.80;99.90
29201;DHT22;16244;51.956;12.980;2022-08-03T00:37:51;15.90;99.90
29201;DHT22;16244;51.956;12.980;2022-08-03T00:40:18;15.90;99.90
29201;DHT22;16244;51.956;12.980;2022-08-03T00:42:48;15.90;99.90
29201;DHT22;16244;51.956;12.980;2022-08-03T00:45:16;15.90;99.90
29201;DHT22;16244;51.956;12.980;2022-08-03T00:47:44;15.90;99.90
29201;DHT22;16244;51.956;12.980;2022-08-03T00:50:11;15.90;99.90
29201;DHT22;16244;51.956;12.980;2022-08-03T00:52:40;15.90;99.90
29201;DHT22;16244;51.956;12.980;2022-08-03T00:55:09;16.00;99.90
29201;DHT22;16244;51.956;12.980;2022-08-03T00:57:37;16.00;99.90
29201;DHT22;16244;51.956;12.980;2022-08-03T01:00:05;15.90;99.90
29201;DHT22;16244;51.956;12.980;2022-08-03T01:02:33;15.80;99.90
29201;DHT22;16244;51.956;12.980;2022-08-03T01:05:00;15.80;99.90
29201;DHT22;16244;51.956;12.980;2022-08-03T01:07:36;15.60;99.90
29201;DHT22;16244;51.956;12.980;2022-08-03T01:10:12;15.50;99.90
29201;DHT22;16244;51.956;12.980;2022-08-03T01:12:44;15.40;99.90
29201;DHT22;16244;51.956;12.980;2022-08-03T01:15:18;15.40;99.90
29201;DHT22;16244;51.956;12.980;2022-08-03T01:17:52;15.40;99.90
29201;DHT22;16244;51.956;12.980;2022-08-03T01:20:22;15.50;99.90
29201;DHT22;16244;51.956;12.980;2022-08-03T01:23:09;15.50;99.90
29201;DHT22;16244;51.956;12.980;2022-08-03T01:25:58;15.50;99.90
29201;DHT22;16244;51.956;12.980;2022-08-03T01:28:38;15.40;99.90
29201;DHT22;16244;51.956;12.980;2022-08-03T01:31:36;15.20;99.90
29201;DHT22;16244;51.956;12.980;2022-08-03T01:34:16;15.00;99.90
29201;DHT22;16244;51.956;12.980;2022-08-03T01:36:56;14.90;99.90
29201;DHT22;16244;51.956;12.980;2022-08-03T01:39:44;14.90;99.90
29201;DHT22;16244;51.956;12.980;2022-08-03T01:42:26;14.90;99.90
29201;DHT22;16244;51.956;12.980;2022-08-03T01:45:13;14.90;99.90
29201;DHT22;16244;51.956;12.980;2022-08-03T01:47:44;15.00;99.90
29201;DHT22;16244;51.956;12.980;2022-08-03T01:50:12;15.00;99.90
29201;DHT22;16244;51.956;12.980;2022-08-03T01:52:43;15.00;99.90
29201;DHT22;16244;51.956;12.980;2022-08-03T01:55:11;15.10;99.90
29201;DHT22;16244;51.956;12.980;2022-08-03T01:57:42;15.20;99.90
29201;DHT22;16244;51.956;12.980;2022-08-03T02:00:11;15.30;99.90
29201;DHT22;16244;51.956;12.980;2022-08-03T02:02:39;15.40;99.90
29201;DHT22;16244;51.956;12.980;2022-08-03T02:05:10;15.50;99.90
29201;DHT22;16244;51.956;12.980;2022-08-03T02:07:40;15.60;99.90
29201;DHT22;16244;51.956;12.980;2022-08-03T02:10:22;15.50;99.90
29201;DHT22;16244;51.956;12.980;2022-08-03T02:12:50;15.40;99.90
29201;DHT22;16244;51.956;12.980;2022-08-03T02:15:18;15.40;99.90
29201;DHT22;16244;51.956;12.980;2022-08-03T02:17:53;15.40;99.90
29201;DHT22;16244;51.956;12.980;2022-08-03T02:20:26;15.40;99.90
29201;DHT22;16244;51.956;12.980;2022-08-03T02:22:55;15.50;99.90
29201;DHT22;16244;51.956;12.980;2022-08-03T02:25:24;15.50;99.90
29201;DHT22;16244;51.956;12.980;2022-08-03T02:27:54;15.30;99.90
29201;DHT22;16244;51.956;12.980;2022-08-03T02:30:28;15.20;99.90
29201;DHT22;16244;51.956;12.980;2022-08-03T02:32:57;15.20;99.90
29201;DHT22;16244;51.956;12.980;2022-08-03T02:35:27;15.20;99.90
29201;DHT22;16244;51.956;12.980;2022-08-03T02:37:58;15.30;99.90
29201;DHT22;16244;51.956;12.980;2022-08-03T02:40:28;15.40;99.90
29201;DHT22;16244;51.956;12.980;2022-08-03T02:43:06;15.40;99.90
29201;DHT22;16244;51.956;12.980;2022-08-03T02:45:35;15.40;99.90
29201;DHT22;16244;51.956;12.980;2022-08-03T02:48:09;15.50;99.90
29201;DHT22;16244;51.956;12.980;2022-08-03T02:50:41;15.60;99.90
29201;DHT22;16244;51.956;12.980;2022-08-03T02:53:17;15.70;99.90
29201;DHT22;16244;51.956;12.980;2022-08-03T02:55:46;15.80;99.90
29201;DHT22;16244;51.956;12.980;2022-08-03T02:58:18;15.80;99.90
29201;DHT22;16244;51.956;12.980;2022-08-03T03:00:46;15.80;99.90
29201;DHT22;16244;51.956;12.980;2022-08-03T03:03:17;15.70;99.90
29201;DHT22;16244;51.956;12.980;2022-08-03T03:06:03;15.60;99.90
29201;DHT22;16244;51.956;12.980;2022-08-03T03:08:46;15.40;99.90
29201;DHT22;16244;51.956;12.980;2022-08-03T03:11:16;15.30;99.90
29201;DHT22;16244;51.956;12.980;2022-08-03T03:13:45;15.20;99.90
29201;DHT22;16244;51.956;12.980;2022-08-03T03:16:17;15.00;99.90
29201;DHT22;16244;51.956;12.980;2022-08-03T03:18:46;14.80;99.90
29201;DHT22;16244;51.956;12.980;2022-08-03T03:21:19;14.80;99.90
29201;DHT22;16244;51.956;12.980;2022-08-03T03:23:49;14.80;99.90
29201;DHT22;16244;51.956;12.980;2022-08-03T03:26:17;14.90;99.90
29201;DHT22;16244;51.956;12.980;2022-08-03T03:28:44;15.00;99.90
29201;DHT22;16244;51.956;12.980;2022-08-03T03:31:16;15.00;99.90
29201;DHT22;16244;51.956;12.980;2022-08-03T03:33:43;15.00;99.90
29201;DHT22;16244;51.956;12.980;2022-08-03T03:36:10;15.00;99.90
29201;DHT22;16244;51.956;12.980;2022-08-03T03:38:39;15.00;99.90
29201;DHT22;16244;51.956;12.980;2022-08-03T03:41:06;15.00;99.90
29201;DHT22;16244;51.956;12.980;2022-08-03T03:43:34;15.00;99.90
29201;DHT22;16244;51.956;12.980;2022-08-03T03:46:16;15.00;99.90
29201;DHT22;16244;51.956;12.980;2022-08-03T03:48:46;15.00;99.90
29201;DHT22;16244;51.956;12.980;2022-08-03T03:51:14;15.10;99.90
29201;DHT22;16244;51.956;12.980;2022-08-03T03:53:59;15.10;99.90
29201;DHT22;16244;51.956;12.980;2022-08-03T03:56:55;15.00;99.90
29201;DHT22;16244;51.956;12.980;2022-08-03T03:59:38;14.90;99.90
29201;DHT22;16244;51.956;12.980;2022-08-03T04:02:05;14.80;99.90
29201;DHT22;16244;51.956;12.980;2022-08-03T04:04:33;14.70;99.90
29201;DHT22;16244;51.956;12.980;2022-08-03T04:07:18;14.60;99.90
29201;DHT22;16244;51.956;12.980;2022-08-03T04:13:39;14.60;99.90
29201;DHT22;16244;51.956;12.980;2022-08-03T04:16:25;14.70;99.90
29201;DHT22;16244;51.956;12.980;2022-08-03T04:18:56;14.70;99.90
29201;DHT22;16244;51.956;12.980;2022-08-03T04:21:43;14.60;99.90
29201;DHT22;16244;51.956;12.980;2022-08-03T04:24:14;14.50;99.90
29201;DHT22;16244;51.956;12.980;2022-08-03T04:26:42;14.50;99.90
29201;DHT22;16244;51.956;12.980;2022-08-03T04:29:17;14.50;99.90
29201;DHT22;16244;51.956;12.980;2022-08-03T04:31:45;14.60;99.90
29201;DHT22;16244;51.956;12.980;2022-08-03T04:34:15;14.60;99.90
29201;DHT22;16244;51.956;12.980;2022-08-03T04:36:47;14.60;99.90
29201;DHT22;16244;51.956;12.980;2022-08-03T04:39:17;14.70;99.90
29201;DHT22;16244;51.956;12.980;2022-08-03T04:41:46;14.80;99.90
29201;DHT22;16244;51.956;12.980;2022-08-03T04:44:18;14.90;99.90
29201;DHT22;16244;51.956;12.980;2022-08-03T04:46:47;15.00;99.90
29201;DHT22;16244;51.956;12.980;2022-08-03T04:49:15;15.00;99.90
29201;DHT22;16244;51.956;12.980;2022-08-03T04:51:43;15.10;99.90
29201;DHT22;16244;51.956;12.980;2022-08-03T04:54:12;15.30;99.90
29201;DHT22;16244;51.956;12.980;2022-08-03T04:56:41;15.50;99.90
29201;DHT22;16244;51.956;12.980;2022-08-03T04:59:09;15.70;99.90
29201;DHT22;16244;51.956;12.980;2022-08-03T05:01:56;15.90;99.90
29201;DHT22;16244;51.956;12.980;2022-08-03T05:04:30;16.10;99.90
29201;DHT22;16244;51.956;12.980;2022-08-03T05:06:57;16.30;99.90
29201;DHT22;16244;51.956;12.980;2022-08-03T05:09:38;16.50;99.90
29201;DHT22;16244;51.956;12.980;2022-08-03T05:12:21;16.70;99.90
29201;DHT22;16244;51.956;12.980;2022-08-03T05:15:04;16.90;99.90
29201;DHT22;16244;51.956;12.980;2022-08-03T05:17:49;17.20;99.90
29201;DHT22;16244;51.956;12.980;2022-08-03T05:20:34;17.30;99.90
29201;DHT22;16244;51.956;12.980;2022-08-03T05:23:17;17.50;99.90
29201;DHT22;16244;51.956;12.980;2022-08-03T05:25:59;17.70;99.90
29201;DHT22;16244;51.956;12.980;2022-08-03T05:28:26;17.90;99.90
29201;DHT22;16244;51.956;12.980;2022-08-03T05:30:54;18.00;99.90
29201;DHT22;16244;51.956;12.980;2022-08-03T05:33:22;18.30;99.90
29201;DHT22;16244;51.956;12.980;2022-08-03T05:36:04;18.40;99.90
29201;DHT22;16244;51.956;12.980;2022-08-03T05:38:31;18.60;99.90
29201;DHT22;16244;51.956;12.980;2022-08-03T05:41:01;18.80;99.90
29201;DHT22;16244;51.956;12.980;2022-08-03T05:43:31;19.00;99.90
29201;DHT22;16244;51.956;12.980;2022-08-03T05:45:58;19.10;99.90
29201;DHT22;16244;51.956;12.980;2022-08-03T05:48:30;19.30;99.90
29201;DHT22;16244;51.956;12.980;2022-08-03T05:51:12;19.40;99.90
29201;DHT22;16244;51.956;12.980;2022-08-03T05:53:54;19.60;99.90
29201;DHT22;16244;51.956;12.980;2022-08-03T05:56:35;19.80;99.90
29201;DHT22;16244;51.956;12.980;2022-08-03T05:59:06;19.90;99.90
29201;DHT22;16244;51.956;12.980;2022-08-03T06:01:33;20.10;99.90
29201;DHT22;16244;51.956;12.980;2022-08-03T06:04:16;20.30;99.90
29201;DHT22;16244;51.956;12.980;2022-08-03T06:06:43;20.50;99.90
29201;DHT22;16244;51.956;12.980;2022-08-03T06:09:10;20.60;99.90
29201;DHT22;16244;51.956;12.980;2022-08-03T06:11:38;20.80;99.90
29201;DHT22;16244;51.956;12.980;2022-08-03T06:14:07;21.00;99.90
29201;DHT22;16244;51.956;12.980;2022-08-03T06:16:34;21.20;99.90
29201;DHT22;16244;51.956;12.980;2022-08-03T06:19:01;21.30;99.90
29201;DHT22;16244;51.956;12.980;2022-08-03T06:21:29;21.40;99.90
29201;DHT22;16244;51.956;12.980;2022-08-03T06:23:56;21.60;99.90
29201;DHT22;16244;51.956;12.980;2022-08-03T06:26:24;21.70;99.90
29201;DHT22;16244;51.956;12.980;2022-08-03T06:28:52;21.80;99.90
29201;DHT22;16244;51.956;12.980;2022-08-03T06:31:20;22.00;99.90
29201;DHT22;16244;51.956;12.980;2022-08-03T06:33:47;22.20;99.90
29201;DHT22;16244;51.956;12.980;2022-08-03T06:36:14;22.40;99.90
29201;DHT22;16244;51.956;12.980;2022-08-03T06:38:43;22.50;99.90
29201;DHT22;16244;51.956;12.980;2022-08-03T06:41:10;22.70;99.90
29201;DHT22;16244;51.956;12.980;2022-08-03T06:43:37;22.80;99.90
29201;DHT22;16244;51.956;12.980;2022-08-03T06:46:04;23.00;99.90
29201;DHT22;16244;51.956;12.980;2022-08-03T06:48:31;23.20;99.90
29201;DHT22;16244;51.956;12.980;2022-08-03T06:50:58;23.40;99.90
29201;DHT22;16244;51.956;12.980;2022-08-03T06:53:25;23.60;99.90
29201;DHT22;16244;51.956;12.980;2022-08-03T06:55:54;23.80;99.90
29201;DHT22;16244;51.956;12.980;2022-08-03T06:58:21;24.00;99.90
29201;DHT22;16244;51.956;12.980;2022-08-03T07:00:48;24.20;99.90
29201;DHT22;16244;51.956;12.980;2022-08-03T07:03:15;24.40;99.90
29201;DHT22;16244;51.956;12.980;2022-08-03T07:05:43;24.60;99.90
29201;DHT22;16244;51.956;12.980;2022-08-03T07:08:12;24.90;99.90
29201;DHT22;16244;51.956;12.980;2022-08-03T07:10:39;25.00;99.90
29201;DHT22;16244;51.956;12.980;2022-08-03T07:13:07;25.20;99.90
29201;DHT22;16244;51.956;12.980;2022-08-03T07:15:35;25.40;99.90
29201;DHT22;16244;51.956;12.980;2022-08-03T07:18:03;25.50;99.90
29201;DHT22;16244;51.956;12.980;2022-08-03T07:20:31;25.70;99.90
29201;DHT22;16244;51.956;12.980;2022-08-03T07:22:59;25.90;99.90
29201;DHT22;16244;51.956;12.980;2022-08-03T07:25:54;26.20;99.90
29201;DHT22;16244;51.956;12.980;2022-08-03T07:28:58;26.40;99.90
29201;DHT22;16244;51.956;12.980;2022-08-03T07:31:54;26.50;99.90
29201;DHT22;16244;51.956;12.980;2022-08-03T07:34:39;26.70;99.90
29201;DHT22;16244;51.956;12.980;2022-08-03T07:37:20;26.90;99.90
29201;DHT22;16244;51.956;12.980;2022-08-03T07:40:16;27.30;99.90
29201;DHT22;16244;51.956;12.980;2022-08-03T07:42:58;27.50;99.90
29201;DHT22;16244;51.956;12.980;2022-08-03T07:49:13;28.10;99.90
29201;DHT22;16244;51.956;12.980;2022-08-03T07:52:00;28.40;99.90
29201;DHT22;16244;51.956;12.980;2022-08-03T07:55:03;28.60;99.90
29201;DHT22;16244;51.956;12.980;2022-08-03T07:58:01;28.90;99.90
29201;DHT22;16244;51.956;12.980;2022-08-03T08:00:49;29.10;98.10
29201;DHT22;16244;51.956;12.980;2022-08-03T08:03:31;28.90;97.40
29201;DHT22;16244;51.956;12.980;2022-08-03T08:06:30;29.00;97.80
29201;DHT22;16244;51.956;12.980;2022-08-03T08:09:20;29.30;95.90
29201;DHT22;16244;51.956;12.980;2022-08-03T08:12:03;29.30;96.40
29201;DHT22;16244;51.956;12.980;2022-08-03T08:14:59;29.60;96.90
29201;DHT22;16244;51.956;12.980;2022-08-03T08:17:43;29.80;95.60
29201;DHT22;16244;51.956;12.980;2022-08-03T08:20:40;30.00;94.20
29201;DHT22;16244;51.956;12.980;2022-08-03T08:23:36;30.30;94.50
29201;DHT22;16244;51.956;12.980;2022-08-03T08:26:32;30.40;93.80
29201;DHT22;16244;51.956;12.980;2022-08-03T08:29:31;30.60;90.40
29201;DHT22;16244;51.956;12.980;2022-08-03T08:32:27;30.70;86.30
29201;DHT22;16244;51.956;12.980;2022-08-03T08:35:13;30.90;91.40
29201;DHT22;16244;51.956;12.980;2022-08-03T08:37:58;31.10;89.20
29201;DHT22;16244;51.956;12.980;2022-08-03T08:41:13;31.10;89.60
29201;DHT22;16244;51.956;12.980;2022-08-03T08:44:13;31.20;86.70
29201;DHT22;16244;51.956;12.980;2022-08-03T08:47:09;31.50;90.30
29201;DHT22;16244;51.956;12.980;2022-08-03T08:50:02;31.60;88.90
29201;DHT22;16244;51.956;12.980;2022-08-03T08:52:51;31.80;86.20
29201;DHT22;16244;51.956;12.980;2022-08-03T08:55:34;31.70;85.90
29201;DHT22;16244;51.956;12.980;2022-08-03T09:01:49;32.10;86.10
29201;DHT22;16244;51.956;12.980;2022-08-03T09:04:45;32.60;83.90
29201;DHT22;16244;51.956;12.980;2022-08-03T09:07:28;32.80;84.70
29201;DHT22;16244;51.956;12.980;2022-08-03T09:10:11;33.00;82.10
29201;DHT22;16244;51.956;12.980;2022-08-03T09:13:07;33.20;85.50
29201;DHT22;16244;51.956;12.980;2022-08-03T09:16:10;33.50;79.30
29201;DHT22;16244;51.956;12.980;2022-08-03T09:19:27;33.20;79.90
29201;DHT22;16244;51.956;12.980;2022-08-03T09:22:24;33.40;87.40
29201;DHT22;16244;51.956;12.980;2022-08-03T09:25:19;33.50;79.50
29201;DHT22;16244;51.956;12.980;2022-08-03T09:28:20;33.70;77.20
29201;DHT22;16244;51.956;12.980;2022-08-03T09:31:06;33.90;75.50
29201;DHT22;16244;51.956;12.980;2022-08-03T09:33:49;33.80;78.50
29201;DHT22;16244;51.956;12.980;2022-08-03T09:36:45;34.00;76.10
29201;DHT22;16244;51.956;12.980;2022-08-03T09:39:41;33.90;80.00
29201;DHT22;16244;51.956;12.980;2022-08-03T09:42:55;34.20;76.50
29201;DHT22;16244;51.956;12.980;2022-08-03T09:45:38;34.50;76.50
29201;DHT22;16244;51.956;12.980;2022-08-03T09:48:35;34.60;75.50
29201;DHT22;16244;51.956;12.980;2022-08-03T09:51:23;34.80;79.20
29201;DHT22;16244;51.956;12.980;2022-08-03T10:01:14;35.10;78.00
29201;DHT22;16244;51.956;12.980;2022-08-03T10:04:13;35.30;76.10
29201;DHT22;16244;51.956;12.980;2022-08-03T10:07:10;35.50;73.60
29201;DHT22;16244;51.956;12.980;2022-08-03T10:10:07;35.50;73.40
29201;DHT22;16244;51.956;12.980;2022-08-03T10:12:52;35.10;72.80
29201;DHT22;16244;51.956;12.980;2022-08-03T10:15:36;35.20;76.40
29201;DHT22;16244;51.956;12.980;2022-08-03T10:21:49;35.00;73.60
29201;DHT22;16244;51.956;12.980;2022-08-03T10:24:23;35.00;71.50
29201;DHT22;16244;51.956;12.980;2022-08-03T10:26:50;34.20;70.50
29201;DHT22;16244;51.956;12.980;2022-08-03T10:29:21;34.10;71.50
29201;DHT22;16244;51.956;12.980;2022-08-03T10:31:53;34.20;72.60
29201;DHT22;16244;51.956;12.980;2022-08-03T10:34:25;34.60;72.20
29201;DHT22;16244;51.956;12.980;2022-08-03T10:37:03;34.90;75.60
29201;DHT22;16244;51.956;12.980;2022-08-03T10:39:50;34.90;74.20
29201;DHT22;16244;51.956;12.980;2022-08-03T10:42:22;35.20;70.00
29201;DHT22;16244;51.956;12.980;2022-08-03T10:44:57;35.10;72.80
29201;DHT22;16244;51.956;12.980;2022-08-03T10:47:28;35.10;72.80
29201;DHT22;16244;51.956;12.980;2022-08-03T10:49:56;35.20;73.30
29201;DHT22;16244;51.956;12.980;2022-08-03T10:52:26;35.30;73.60
29201;DHT22;16244;51.956;12.980;2022-08-03T10:55:01;35.10;69.70
29201;DHT22;16244;51.956;12.980;2022-08-03T10:57:58;34.40;70.30
29201;DHT22;16244;51.956;12.980;2022-08-03T11:00:48;34.60;73.20
29201;DHT22;16244;51.956;12.980;2022-08-03T11:03:16;34.80;73.30
29201;DHT22;16244;51.956;12.980;2022-08-03T11:05:44;35.10;72.70
29201;DHT22;16244;51.956;12.980;2022-08-03T11:08:29;35.10;69.70
29201;DHT22;16244;51.956;12.980;2022-08-03T11:10:59;35.20;72.00
29201;DHT22;16244;51.956;12.980;2022-08-03T11:13:28;35.40;76.60
29201;DHT22;16244;51.956;12.980;2022-08-03T11:15:59;35.60;70.30
29201;DHT22;16244;51.956;12.980;2022-08-03T11:18:31;35.60;73.20
29201;DHT22;16244;51.956;12.980;2022-08-03T11:21:04;35.80;72.60
29201;DHT22;16244;51.956;12.980;2022-08-03T11:23:43;35.50;72.90
29201;DHT22;16244;51.956;12.980;2022-08-03T11:26:14;35.30;71.10
29201;DHT22;16244;51.956;12.980;2022-08-03T11:28:43;35.10;71.30
29201;DHT22;16244;51.956;12.980;2022-08-03T11:31:42;35.00;68.00
29201;DHT22;16244;51.956;12.980;2022-08-03T11:34:14;35.00;75.50
29201;DHT22;16244;51.956;12.980;2022-08-03T11:37:22;34.80;82.30
29201;DHT22;16244;51.956;12.980;2022-08-03T11:39:53;34.80;70.40
29201;DHT22;16244;51.956;12.980;2022-08-03T11:42:43;34.90;72.10
29201;DHT22;16244;51.956;12.980;2022-08-03T11:45:28;35.00;67.10
29201;DHT22;16244;51.956;12.980;2022-08-03T11:48:12;34.90;68.90
29201;DHT22;16244;51.956;12.980;2022-08-03T11:50:43;35.00;74.50
29201;DHT22;16244;51.956;12.980;2022-08-03T11:53:16;34.90;68.20
29201;DHT22;16244;51.956;12.980;2022-08-03T11:55:49;35.20;72.80
29201;DHT22;16244;51.956;12.980;2022-08-03T11:58:21;35.10;67.70
29201;DHT22;16244;51.956;12.980;2022-08-03T12:01:03;35.00;74.10
29201;DHT22;16244;51.956;12.980;2022-08-03T12:03:37;34.90;70.50
29201;DHT22;16244;51.956;12.980;2022-08-03T12:06:16;35.00;67.70
29201;DHT22;16244;51.956;12.980;2022-08-03T12:08:51;35.30;71.30
29201;DHT22;16244;51.956;12.980;2022-08-03T12:11:23;35.20;67.10
29201;DHT22;16244;51.956;12.980;2022-08-03T12:13:50;35.20;70.70
29201;DHT22;16244;51.956;12.980;2022-08-03T12:16:21;35.20;67.70
29201;DHT22;16244;51.956;12.980;2022-08-03T12:19:04;35.30;69.50
29201;DHT22;16244;51.956;12.980;2022-08-03T12:21:47;35.50;68.20
29201;DHT22;16244;51.956;12.980;2022-08-03T12:24:24;35.60;65.20
29201;DHT22;16244;51.956;12.980;2022-08-03T12:27:04;35.80;65.10
29201;DHT22;16244;51.956;12.980;2022-08-03T12:29:36;36.00;65.00
29201;DHT22;16244;51.956;12.980;2022-08-03T12:32:06;36.00;62.50
29201;DHT22;16244;51.956;12.980;2022-08-03T12:34:45;35.50;63.50
29201;DHT22;16244;51.956;12.980;2022-08-03T12:37:19;35.20;62.40
29201;DHT22;16244;51.956;12.980;2022-08-03T12:39:50;34.80;65.20
29201;DHT22;16244;51.956;12.980;2022-08-03T12:42:29;34.60;67.20
29201;DHT22;16244;51.956;12.980;2022-08-03T12:45:34;34.40;66.80
29201;DHT22;16244;51.956;12.980;2022-08-03T12:48:19;34.20;70.10
29201;DHT22;16244;51.956;12.980;2022-08-03T12:51:08;34.10;67.90
29201;DHT22;16244;51.956;12.980;2022-08-03T12:53:56;34.00;70.40
29201;DHT22;16244;51.956;12.980;2022-08-03T12:56:56;33.70;65.70
29201;DHT22;16244;51.956;12.980;2022-08-03T13:00:13;33.60;67.60
29201;DHT22;16244;51.956;12.980;2022-08-03T13:03:08;33.30;67.40
29201;DHT22;16244;51.956;12.980;2022-08-03T13:06:10;33.30;71.50
29201;DHT22;16244;51.956;12.980;2022-08-03T13:09:07;33.20;66.60
29201;DHT22;16244;51.956;12.980;2022-08-03T13:12:07;33.30;67.30
29201;DHT22;16244;51.956;12.980;2022-08-03T13:14:35;33.50;70.20
29201;DHT22;16244;51.956;12.980;2022-08-03T13:17:04;33.50;68.60
29201;DHT22;16244;51.956;12.980;2022-08-03T13:19:32;33.50;66.10
29201;DHT22;16244;51.956;12.980;2022-08-03T13:21:59;33.50;68.30
29201;DHT22;16244;51.956;12.980;2022-08-03T13:24:28;33.50;68.30
29201;DHT22;16244;51.956;12.980;2022-08-03T13:26:55;33.50;66.80
29201;DHT22;16244;51.956;12.980;2022-08-03T13:29:22;33.40;64.80
29201;DHT22;16244;51.956;12.980;2022-08-03T13:31:49;33.30;66.50
29201;DHT22;16244;51.956;12.980;2022-08-03T13:34:18;33.50;67.30
29201;DHT22;16244;51.956;12.980;2022-08-03T13:36:45;33.90;69.50
29201;DHT22;16244;51.956;12.980;2022-08-03T13:39:12;33.90;71.10
29201;DHT22;16244;51.956;12.980;2022-08-03T13:41:40;33.90;64.60
29201;DHT22;16244;51.956;12.980;2022-08-03T13:44:07;34.10;67.10
29201;DHT22;16244;51.956;12.980;2022-08-03T13:46:34;34.30;64.20
29201;DHT22;16244;51.956;12.980;2022-08-03T13:49:01;34.40;67.20
29201;DHT22;16244;51.956;12.980;2022-08-03T13:51:29;34.80;66.40
29201;DHT22;16244;51.956;12.980;2022-08-03T13:53:56;35.20;64.00
29201;DHT22;16244;51.956;12.980;2022-08-03T13:56:24;35.20;63.40
29201;DHT22;16244;51.956;12.980;2022-08-03T13:58:51;35.30;64.10
29201;DHT22;16244;51.956;12.980;2022-08-03T14:01:19;35.40;66.30
29201;DHT22;16244;51.956;12.980;2022-08-03T14:03:46;35.70;63.10
29201;DHT22;16244;51.956;12.980;2022-08-03T14:06:17;35.80;64.40
29201;DHT22;16244;51.956;12.980;2022-08-03T14:08:46;35.90;61.70
29201;DHT22;16244;51.956;12.980;2022-08-03T14:11:14;36.00;63.60
29201;DHT22;16244;51.956;12.980;2022-08-03T14:13:41;36.10;62.40
29201;DHT22;16244;51.956;12.980;2022-08-03T14:16:08;36.10;62.20
29201;DHT22;16244;51.956;12.980;2022-08-03T14:18:35;36.00;60.30
29201;DHT22;16244;51.956;12.980;2022-08-03T14:21:04;35.90;61.70
29201;DHT22;16244;51.956;12.980;2022-08-03T14:23:31;35.90;62.30
29201;DHT22;16244;51.956;12.980;2022-08-03T14:26:00;36.00;62.10
29201;DHT22;16244;51.956;12.980;2022-08-03T14:28:27;35.90;63.60
29201;DHT22;16244;51.956;12.980;2022-08-03T14:30:54;35.80;64.70
29201;DHT22;16244;51.956;12.980;2022-08-03T14:33:22;36.00;61.10
29201;DHT22;16244;51.956;12.980;2022-08-03T14:35:50;36.00;61.80
29201;DHT22;16244;51.956;12.980;2022-08-03T14:38:18;36.10;63.80
29201;DHT22;16244;51.956;12.980;2022-08-03T14:40:45;36.20;61.00
29201;DHT22;16244;51.956;12.980;2022-08-03T14:43:14;36.40;62.90
29201;DHT22;16244;51.956;12.980;2022-08-03T14:45:42;36.70;63.90
29201;DHT22;16244;51.956;12.980;2022-08-03T14:48:09;36.70;65.90
29201;DHT22;16244;51.956;12.980;2022-08-03T14:50:37;36.70;62.20
29201;DHT22;16244;51.956;12.980;2022-08-03T14:53:04;36.80;64.70
29201;DHT22;16244;51.956;12.980;2022-08-03T14:55:31;36.80;58.00
29201;DHT22;16244;51.956;12.980;2022-08-03T14:57:58;36.80;65.30
29201;DHT22;16244;51.956;12.980;2022-08-03T15:00:32;36.80;59.20
29201;DHT22;16244;51.956;12.980;2022-08-03T15:02:59;36.70;58.80
29201;DHT22;16244;51.956;12.980;2022-08-03T15:05:26;37.00;60.60
29201;DHT22;16244;51.956;12.980;2022-08-03T15:07:53;37.10;61.50
29201;DHT22;16244;51.956;12.980;2022-08-03T15:10:20;37.20;60.30
29201;DHT22;16244;51.956;12.980;2022-08-03T15:12:48;37.20;59.20
29201;DHT22;16244;51.956;12.980;2022-08-03T15:15:15;37.10;58.70
29201;DHT22;16244;51.956;12.980;2022-08-03T15:17:43;37.10;58.60
29201;DHT22;16244;51.956;12.980;2022-08-03T15:20:10;37.20;61.10
29201;DHT22;16244;51.956;12.980;2022-08-03T15:22:38;37.30;59.90
29201;DHT22;16244;51.956;12.980;2022-08-03T15:25:06;37.50;59.00
29201;DHT22;16244;51.956;12.980;2022-08-03T15:27:33;37.50;57.10
29201;DHT22;16244;51.956;12.980;2022-08-03T15:30:00;37.40;57.70
29201;DHT22;16244;51.956;12.980;2022-08-03T15:32:31;37.30;55.70
29201;DHT22;16244;51.956;12.980;2022-08-03T15:35:00;37.20;58.60
29201;DHT22;16244;51.956;12.980;2022-08-03T15:37:27;37.20;58.80
29201;DHT22;16244;51.956;12.980;2022-08-03T15:39:54;37.00;58.80
29201;DHT22;16244;51.956;12.980;2022-08-03T15:42:21;36.70;56.90
29201;DHT22;16244;51.956;12.980;2022-08-03T15:44:48;36.40;56.60
29201;DHT22;16244;51.956;12.980;2022-08-03T15:47:15;36.20;56.50
29201;DHT22;16244;51.956;12.980;2022-08-03T15:49:42;36.10;56.00
29201;DHT22;16244;51.956;12.980;2022-08-03T15:52:10;35.90;57.70
29201;DHT22;16244;51.956;12.980;2022-08-03T15:54:37;35.90;57.60
29201;DHT22;16244;51.956;12.980;2022-08-03T15:57:05;35.90;58.00
29201;DHT22;16244;51.956;12.980;2022-08-03T15:59:32;35.90;58.00
29201;DHT22;16244;51.956;12.980;2022-08-03T16:01:59;35.90;58.30
29201;DHT22;16244;51.956;12.980;2022-08-03T16:04:26;35.80;57.20
29201;DHT22;16244;51.956;12.980;2022-08-03T16:06:54;35.80;58.70
29201;DHT22;16244;51.956;12.980;2022-08-03T16:09:22;35.80;57.50
29201;DHT22;16244;51.956;12.980;2022-08-03T16:11:49;35.80;59.80
29201;DHT22;16244;51.956;12.980;2022-08-03T16:14:16;35.80;57.70
29201;DHT22;16244;51.956;12.980;2022-08-03T16:16:43;35.70;58.00
29201;DHT22;16244;51.956;12.980;2022-08-03T16:19:10;35.70;59.00
29201;DHT22;16244;51.956;12.980;2022-08-03T16:21:38;35.70;59.10
29201;DHT22;16244;51.956;12.980;2022-08-03T16:24:05;35.70;58.40
29201;DHT22;16244;51.956;12.980;2022-08-03T16:26:34;35.50;58.90